Terminal Aerodrome Forecast
Issued by NWS Sioux Falls, SD

Home | Current Version | Previous Version | Graphics & Text | Print | Product List | Glossary Off
Versions: 1 2 3 4 5 6 7 8 9 10 11 12 13 14 15 16 17 18 19 20 21

000
FTUS43 KFSD 230520
TAFHON
TAF
KHON 230520Z 2306/2406 17006KT P6SM SCT100 OVC200
     FM230800 13007KT P6SM OVC070
     FM231100 12009KT P6SM VCSH OVC050
     FM231500 14013KT P6SM OVC040
     FM232300 14011KT P6SM -SHRA OVC035
     FM240200 11009KT P6SM -SHRA OVC025=

USA.gov is the U.S. government's official web portal to all federal, state and local government web resources and services.